createdAt,value
2022-09-15T00:02:21.611Z,13.13
2022-09-15T00:04:48.013Z,13.04
2022-09-15T00:07:14.407Z,12.89
2022-09-15T00:09:40.719Z,12.76
2022-09-15T00:12:07.247Z,12.68
2022-09-15T00:14:33.607Z,12.63
2022-09-15T00:17:00.032Z,12.57
2022-09-15T00:19:26.437Z,12.52
2022-09-15T00:21:52.794Z,12.44
2022-09-15T00:24:19.103Z,12.37
2022-09-15T00:26:45.474Z,12.32
2022-09-15T00:29:11.820Z,12.27
2022-09-15T00:31:38.372Z,12.23
2022-09-15T00:34:06.979Z,12.24
2022-09-15T00:36:33.854Z,12.29
2022-09-15T00:39:00.239Z,12.32
2022-09-15T00:41:26.558Z,12.36
2022-09-15T00:44:01.501Z,12.46
2022-09-15T00:46:34.184Z,12.50
2022-09-15T00:49:11.646Z,12.49
2022-09-15T00:51:47.619Z,12.52
2022-09-15T00:54:31.497Z,12.50
2022-09-15T00:57:02.728Z,12.54
2022-09-15T00:59:31.867Z,12.55
2022-09-15T01:02:08.402Z,12.55
2022-09-15T01:04:34.759Z,12.58
2022-09-15T01:07:05.423Z,12.60
2022-09-15T01:09:38.189Z,12.57
2022-09-15T01:12:04.763Z,12.55
2022-09-15T01:14:31.385Z,12.54
2022-09-15T01:17:32.487Z,12.46
2022-09-15T01:20:07.998Z,12.35
2022-09-15T01:23:23.164Z,12.27
2022-09-15T01:26:06.150Z,12.28
2022-09-15T01:28:55.728Z,12.29
2022-09-15T01:31:21.979Z,12.35
2022-09-15T01:33:51.138Z,12.35
2022-09-15T01:36:44.991Z,12.33
2022-09-15T01:39:18.521Z,12.29
2022-09-15T01:41:53.060Z,12.22
2022-09-15T01:44:24.677Z,12.12
2022-09-15T01:46:58.480Z,12.09
2022-09-15T01:49:33.821Z,12.05
2022-09-15T01:52:00.148Z,11.98
2022-09-15T01:54:30.504Z,11.96
2022-09-15T01:56:57.607Z,11.97
2022-09-15T01:59:24.259Z,11.97
2022-09-15T02:01:59.606Z,11.99
2022-09-15T02:04:30.162Z,11.99
2022-09-15T02:07:15.175Z,11.99
2022-09-15T02:09:51.585Z,11.97
2022-09-15T02:13:00.039Z,11.96
2022-09-15T02:15:29.996Z,11.98
2022-09-15T02:17:57.965Z,11.97
2022-09-15T02:20:41.338Z,11.93
2022-09-15T02:23:15.997Z,11.89
2022-09-15T02:25:46.934Z,11.90
2022-09-15T02:28:15.188Z,11.93
2022-09-15T02:30:44.010Z,11.93
2022-09-15T02:33:14.711Z,11.92
2022-09-15T02:35:42.124Z,11.95
2022-09-15T02:38:10.628Z,11.99
2022-09-15T02:40:41.113Z,12.07
2022-09-15T02:43:13.396Z,12.10
2022-09-15T02:45:40.190Z,12.17
2022-09-15T02:48:09.219Z,12.21
2022-09-15T02:50:37.075Z,12.29
2022-09-15T02:53:04.372Z,12.36
2022-09-15T02:55:30.690Z,12.40
2022-09-15T02:57:57.846Z,12.42
2022-09-15T03:00:24.574Z,12.46
2022-09-15T03:02:53.430Z,12.49
2022-09-15T03:05:22.977Z,12.51
2022-09-15T03:07:50.847Z,12.54
2022-09-15T03:10:17.523Z,12.54
2022-09-15T03:12:48.107Z,12.56
2022-09-15T03:15:16.783Z,12.59
2022-09-15T03:17:44.746Z,12.64
2022-09-15T03:20:13.869Z,12.67
2022-09-15T03:22:40.303Z,12.70
2022-09-15T03:25:07.771Z,12.71
2022-09-15T03:27:35.361Z,12.70
2022-09-15T03:30:02.019Z,12.70
2022-09-15T03:32:28.731Z,12.73
2022-09-15T03:34:58.377Z,12.75
2022-09-15T03:37:25.543Z,12.75
2022-09-15T03:39:51.918Z,12.74
2022-09-15T03:42:18.318Z,12.74
2022-09-15T03:44:44.616Z,12.76
2022-09-15T03:47:11.059Z,12.75
2022-09-15T03:49:37.374Z,12.74
2022-09-15T03:52:03.758Z,12.73
2022-09-15T03:54:30.298Z,12.70
2022-09-15T03:56:56.599Z,12.69
2022-09-15T03:59:23.531Z,12.70
2022-09-15T04:01:50.481Z,12.72
2022-09-15T04:04:17.428Z,12.75
2022-09-15T04:06:44.838Z,12.78
2022-09-15T04:09:11.459Z,12.84
2022-09-15T04:11:38.110Z,12.87
2022-09-15T04:14:04.422Z,12.92
2022-09-15T04:16:30.805Z,12.94
2022-09-15T04:18:57.844Z,12.98
2022-09-15T04:21:26.610Z,12.99
2022-09-15T04:23:53.970Z,13.00
2022-09-15T04:26:32.215Z,13.00
2022-09-15T04:29:03.865Z,12.98
2022-09-15T04:31:32.393Z,12.97
2022-09-15T04:33:59.281Z,12.98
2022-09-15T04:36:28.118Z,12.95
2022-09-15T04:38:55.299Z,12.92
2022-09-15T04:41:21.930Z,12.92
2022-09-15T04:43:48.813Z,12.93
2022-09-15T04:46:15.637Z,12.92
2022-09-15T04:48:43.890Z,12.94
2022-09-15T04:51:13.362Z,12.92
2022-09-15T04:53:39.743Z,12.89
2022-09-15T04:56:11.871Z,12.89
2022-09-15T04:58:44.327Z,12.92
2022-09-15T05:01:14.716Z,12.92
2022-09-15T05:03:42.195Z,12.94
2022-09-15T05:06:11.318Z,12.97
2022-09-15T05:08:38.075Z,12.97
2022-09-15T05:11:07.603Z,12.96
2022-09-15T05:13:34.909Z,12.94
2022-09-15T05:16:11.949Z,12.92
2022-09-15T05:18:39.458Z,12.94
2022-09-15T05:21:07.666Z,12.96
2022-09-15T05:23:35.615Z,12.97
2022-09-15T05:26:04.883Z,13.00
2022-09-15T05:28:36.183Z,13.04
2022-09-15T05:31:11.394Z,13.08
2022-09-15T05:33:38.553Z,13.11
2022-09-15T05:36:06.088Z,13.16
2022-09-15T05:38:32.726Z,13.17
2022-09-15T05:41:07.168Z,13.19
2022-09-15T05:43:35.064Z,13.18
2022-09-15T05:46:02.207Z,13.17
2022-09-15T05:48:29.296Z,13.19
2022-09-15T05:50:56.749Z,13.26
2022-09-15T05:53:23.796Z,13.32
2022-09-15T05:55:58.266Z,13.40
2022-09-15T05:58:25.490Z,13.44
2022-09-15T06:00:53.300Z,13.50
2022-09-15T06:03:20.239Z,13.55
2022-09-15T06:05:46.835Z,13.56
2022-09-15T06:08:13.175Z,13.58
2022-09-15T06:10:39.828Z,13.65
2022-09-15T06:13:06.171Z,13.77
2022-09-15T06:15:32.502Z,13.90
2022-09-15T06:17:59.496Z,14.05
2022-09-15T06:20:25.941Z,14.14
2022-09-15T06:22:53.370Z,14.18
2022-09-15T06:25:19.733Z,14.17
2022-09-15T06:27:49.253Z,14.23
2022-09-15T06:30:15.590Z,14.31
2022-09-15T06:32:46.169Z,14.40
2022-09-15T06:35:15.104Z,14.47
2022-09-15T06:37:41.426Z,14.48
2022-09-15T06:40:08.469Z,14.49
2022-09-15T06:42:34.815Z,14.51
2022-09-15T06:45:01.158Z,14.51
2022-09-15T06:47:33.659Z,14.57
2022-09-15T06:50:00.848Z,14.70
2022-09-15T06:52:27.619Z,14.85
2022-09-15T06:54:53.914Z,14.99
2022-09-15T06:57:20.374Z,15.24
2022-09-15T06:59:46.688Z,15.51
2022-09-15T07:02:13.119Z,15.73
2022-09-15T07:04:39.524Z,15.94
2022-09-15T07:07:05.817Z,16.81
2022-09-15T07:09:32.189Z,16.68
2022-09-15T07:11:58.693Z,16.39
2022-09-15T07:14:24.987Z,16.22
2022-09-15T07:16:51.400Z,16.05
2022-09-15T07:19:17.774Z,15.85
2022-09-15T07:21:44.119Z,15.50
2022-09-15T07:24:10.576Z,15.41
2022-09-15T07:26:37.839Z,15.34
2022-09-15T07:29:06.611Z,15.27
2022-09-15T07:31:36.156Z,15.21
2022-09-15T07:34:03.357Z,15.23
2022-09-15T07:36:30.842Z,15.29
2022-09-15T07:38:57.746Z,15.40
2022-09-15T07:41:26.534Z,15.60
2022-09-15T07:43:55.207Z,15.84
2022-09-15T07:46:23.532Z,16.00
2022-09-15T07:48:52.967Z,16.16
2022-09-15T07:51:19.883Z,16.25
2022-09-15T07:53:47.829Z,16.36
2022-09-15T07:56:16.062Z,16.41
2022-09-15T07:58:42.376Z,16.41
2022-09-15T08:01:14.784Z,16.49
2022-09-15T08:03:43.374Z,16.67
2022-09-15T08:06:10.846Z,16.83
2022-09-15T08:08:39.116Z,16.96
2022-09-15T08:11:10.041Z,16.91
2022-09-15T08:13:37.105Z,16.83
2022-09-15T08:16:12.455Z,16.71
2022-09-15T08:18:41.899Z,16.76
2022-09-15T08:21:11.180Z,16.82
2022-09-15T08:23:38.268Z,16.94
2022-09-15T08:26:13.629Z,16.99
2022-09-15T08:28:41.042Z,17.12
2022-09-15T08:31:11.307Z,17.24
2022-09-15T08:33:40.837Z,17.39
2022-09-15T08:36:11.442Z,17.58
2022-09-15T08:38:44.119Z,17.66
2022-09-15T08:41:19.652Z,17.79
2022-09-15T08:43:53.389Z,17.84
2022-09-15T08:46:23.928Z,17.87
2022-09-15T08:49:06.528Z,17.62
2022-09-15T08:51:42.499Z,17.57
2022-09-15T08:54:18.504Z,17.36
2022-09-15T08:56:45.348Z,17.11
2022-09-15T08:59:20.407Z,17.08
2022-09-15T09:01:57.940Z,16.93
2022-09-15T09:04:39.211Z,16.99
2022-09-15T09:07:36.118Z,17.09
2022-09-15T09:10:41.459Z,17.28
2022-09-15T09:13:41.654Z,17.24
2022-09-15T09:16:26.462Z,17.27
2022-09-15T09:19:28.980Z,17.20
2022-09-15T09:22:03.938Z,17.47
2022-09-15T09:24:39.309Z,17.58
2022-09-15T09:27:12.898Z,17.51
2022-09-15T09:29:44.673Z,17.37
2022-09-15T09:32:32.142Z,17.12
2022-09-15T09:35:21.436Z,16.89
2022-09-15T09:37:49.398Z,16.62
2022-09-15T09:40:16.208Z,16.52
2022-09-15T09:42:43.754Z,16.48
2022-09-15T09:45:15.402Z,16.40
2022-09-15T09:47:42.633Z,16.37
2022-09-15T09:50:46.106Z,16.40
2022-09-15T09:53:21.427Z,16.63
2022-09-15T09:55:47.837Z,16.95
2022-09-15T09:58:20.279Z,17.49
2022-09-15T10:00:47.449Z,17.91
2022-09-15T10:03:22.633Z,18.18
2022-09-15T10:06:24.847Z,18.55
2022-09-15T10:09:05.825Z,18.71
2022-09-15T10:11:47.766Z,18.84
2022-09-15T10:14:41.809Z,19.24
2022-09-15T10:17:18.157Z,19.28
2022-09-15T10:19:48.552Z,19.04
2022-09-15T10:22:39.698Z,18.47
2022-09-15T10:25:21.240Z,18.03
2022-09-15T10:28:19.631Z,17.71
2022-09-15T10:31:06.223Z,17.87
2022-09-15T10:33:36.218Z,18.03
2022-09-15T10:36:12.466Z,18.30
2022-09-15T10:38:45.527Z,19.11
2022-09-15T10:41:21.383Z,20.21
2022-09-15T10:44:15.661Z,20.83
2022-09-15T10:46:52.810Z,20.75
2022-09-15T10:50:00.676Z,21.02
2022-09-15T10:53:02.231Z,21.95
2022-09-15T10:55:52.765Z,22.43
2022-09-15T10:58:39.939Z,22.87
2022-09-15T11:01:30.077Z,22.43
2022-09-15T11:04:21.368Z,21.82
2022-09-15T11:07:07.826Z,21.37
2022-09-15T11:09:36.686Z,20.82
2022-09-15T11:12:34.632Z,20.75
2022-09-15T11:15:20.961Z,20.30
2022-09-15T11:18:09.709Z,20.27
2022-09-15T11:20:50.356Z,20.11
2022-09-15T11:23:39.784Z,20.65
2022-09-15T11:26:13.577Z,22.72
2022-09-15T11:28:45.079Z,22.50
2022-09-15T11:31:21.087Z,24.92
2022-09-15T11:34:01.490Z,27.22
2022-09-15T11:36:41.840Z,27.86
2022-09-15T11:39:20.075Z,26.42
2022-09-15T11:42:07.563Z,22.90
2022-09-15T11:44:36.506Z,21.41
2022-09-15T11:47:14.181Z,20.20
2022-09-15T11:49:55.189Z,19.40
2022-09-15T11:52:43.204Z,18.92
2022-09-15T11:55:35.781Z,18.64
2022-09-15T11:58:15.510Z,18.69
2022-09-15T12:00:59.160Z,18.81
2022-09-15T12:03:43.511Z,18.97
2022-09-15T12:06:17.228Z,23.34
2022-09-15T12:08:56.703Z,25.91
2022-09-15T12:11:26.356Z,26.96
2022-09-15T12:13:54.133Z,27.94
2022-09-15T12:16:21.255Z,29.07
2022-09-15T12:19:11.830Z,28.49
2022-09-15T12:21:46.886Z,29.31
2022-09-15T12:24:27.745Z,30.52
2022-09-15T12:26:54.288Z,31.68
2022-09-15T12:29:26.487Z,32.46
2022-09-15T12:32:21.175Z,27.43
2022-09-15T12:35:03.419Z,23.76
2022-09-15T12:37:36.845Z,21.83
2022-09-15T12:40:07.581Z,20.51
2022-09-15T12:42:35.974Z,20.00
2022-09-15T12:45:07.905Z,19.58
2022-09-15T12:47:41.360Z,19.01
2022-09-15T12:50:16.936Z,18.52
2022-09-15T12:52:50.644Z,18.26
2022-09-15T12:55:28.512Z,18.12
2022-09-15T12:57:58.589Z,17.97
2022-09-15T13:00:34.688Z,17.75
2022-09-15T13:03:02.446Z,17.45
2022-09-15T13:05:54.342Z,17.17
2022-09-15T13:08:23.630Z,16.98
2022-09-15T13:11:05.516Z,16.88
2022-09-15T13:13:43.712Z,16.90
2022-09-15T13:16:17.779Z,17.00
2022-09-15T13:18:46.917Z,17.15
2022-09-15T13:21:17.467Z,17.45
2022-09-15T13:23:47.993Z,17.74
2022-09-15T13:26:22.450Z,18.06
2022-09-15T13:28:51.650Z,18.27
2022-09-15T13:31:26.626Z,18.62
2022-09-15T13:40:30.176Z,18.60
2022-09-15T13:43:14.344Z,18.59
2022-09-15T13:46:18.560Z,18.81
2022-09-15T13:49:19.317Z,19.03
2022-09-15T13:51:54.154Z,19.04
2022-09-15T13:54:20.734Z,18.93
2022-09-15T13:56:47.435Z,18.93
2022-09-15T13:59:19.448Z,19.10
2022-09-15T14:01:46.310Z,19.11
2022-09-15T14:04:22.687Z,18.99
2022-09-15T14:06:51.647Z,18.71
2022-09-15T14:09:23.646Z,18.33
2022-09-15T14:11:52.923Z,17.98
2022-09-15T14:14:35.150Z,17.51
2022-09-15T14:17:02.173Z,17.08
2022-09-15T14:19:35.683Z,16.74
2022-09-15T14:22:17.858Z,16.53
2022-09-15T14:24:44.614Z,16.47
2022-09-15T14:27:11.571Z,16.50
2022-09-15T14:29:43.036Z,16.58
2022-09-15T14:32:14.807Z,16.87
2022-09-15T14:34:42.362Z,17.54
2022-09-15T14:37:31.456Z,17.64
2022-09-15T14:40:00.044Z,17.65
2022-09-15T14:42:51.307Z,17.77
2022-09-15T14:48:13.907Z,18.08
2022-09-15T14:50:40.979Z,18.39
2022-09-15T14:53:13.147Z,18.43
2022-09-15T14:55:53.275Z,18.26
2022-09-15T14:58:44.478Z,17.99
2022-09-15T15:01:22.932Z,17.95
2022-09-15T15:04:00.258Z,18.33
2022-09-15T15:06:34.768Z,18.51
2022-09-15T15:09:30.231Z,18.43
2022-09-15T15:12:06.190Z,17.90
2022-09-15T15:14:34.469Z,17.52
2022-09-15T15:17:03.032Z,17.37
2022-09-15T15:19:41.062Z,17.42
2022-09-15T15:22:13.553Z,17.31
2022-09-15T15:24:42.741Z,17.30
2022-09-15T15:27:33.639Z,17.18
2022-09-15T15:30:29.684Z,17.04
2022-09-15T15:33:02.381Z,17.00
2022-09-15T15:35:30.554Z,16.94
2022-09-15T15:38:16.568Z,16.90
2022-09-15T15:40:44.751Z,17.12
2022-09-15T15:43:13.870Z,17.42
2022-09-15T15:46:11.012Z,17.36
2022-09-15T15:48:38.137Z,17.11
2022-09-15T15:51:06.658Z,16.95
2022-09-15T15:53:34.268Z,16.96
2022-09-15T15:56:01.095Z,16.94
2022-09-15T15:58:27.589Z,16.90
2022-09-15T16:00:57.152Z,16.89
2022-09-15T16:03:24.775Z,16.88
2022-09-15T16:05:58.582Z,16.85
2022-09-15T16:08:30.187Z,16.74
2022-09-15T16:10:57.483Z,16.66
2022-09-15T16:13:25.064Z,16.53
2022-09-15T16:15:56.693Z,16.34
2022-09-15T16:18:23.555Z,16.13
2022-09-15T16:20:50.111Z,16.01
2022-09-15T16:23:18.443Z,15.98
2022-09-15T16:25:48.980Z,15.97
2022-09-15T16:28:16.665Z,15.94
2022-09-15T16:30:43.378Z,15.93
2022-09-15T16:33:15.413Z,15.91
2022-09-15T16:36:08.545Z,15.86
2022-09-15T16:38:36.715Z,15.89
2022-09-15T16:41:06.230Z,15.84
2022-09-15T16:43:32.564Z,15.87
2022-09-15T16:45:58.871Z,15.78
2022-09-15T16:48:25.212Z,15.69
2022-09-15T16:53:39.418Z,15.61
2022-09-15T16:56:07.835Z,15.55
2022-09-15T16:58:34.167Z,15.45
2022-09-15T17:01:00.518Z,15.37
2022-09-15T17:03:27.471Z,15.30
2022-09-15T17:05:55.718Z,15.24
2022-09-15T17:08:24.462Z,15.21
2022-09-15T17:10:52.716Z,15.17
2022-09-15T17:13:23.974Z,15.09
2022-09-15T17:15:54.090Z,15.14
2022-09-15T17:18:21.860Z,15.17
2022-09-15T17:20:50.661Z,15.19
2022-09-15T17:23:24.336Z,15.15
2022-09-15T17:25:57.427Z,15.10
2022-09-15T17:28:26.530Z,15.04
2022-09-15T17:33:23.795Z,15.00
2022-09-15T17:35:50.283Z,14.95
2022-09-15T17:38:20.123Z,14.87
2022-09-15T17:40:50.859Z,14.78
2022-09-15T17:43:22.975Z,14.68
2022-09-15T17:45:50.080Z,14.64
2022-09-15T17:48:16.829Z,14.60
2022-09-15T17:50:45.160Z,14.62
2022-09-15T17:53:13.539Z,14.60
2022-09-15T17:55:40.306Z,14.50
2022-09-15T17:58:07.153Z,14.43
2022-09-15T18:00:36.831Z,14.22
2022-09-15T18:03:27.700Z,14.08
2022-09-15T18:05:59.059Z,13.97
2022-09-15T18:08:26.815Z,13.90
2022-09-15T18:10:53.828Z,13.93
2022-09-15T18:13:22.655Z,13.91
2022-09-15T18:15:49.882Z,13.89
2022-09-15T18:18:19.726Z,13.80
2022-09-15T18:20:47.019Z,13.75
2022-09-15T18:23:15.687Z,13.79
2022-09-15T18:25:42.971Z,13.87
2022-09-15T18:28:09.894Z,13.85
2022-09-15T18:30:40.472Z,13.58
2022-09-15T18:33:27.122Z,13.24
2022-09-15T18:35:56.994Z,13.00
2022-09-15T18:38:23.371Z,12.85
2022-09-15T18:40:53.310Z,12.74
2022-09-15T18:43:20.868Z,12.66
2022-09-15T18:45:48.141Z,12.64
2022-09-15T18:48:15.154Z,12.63
2022-09-15T18:50:43.114Z,12.62
2022-09-15T18:53:09.733Z,12.57
2022-09-15T18:55:36.231Z,12.54
2022-09-15T18:58:02.735Z,12.52
2022-09-15T19:00:29.922Z,12.52
2022-09-15T19:02:58.079Z,12.45
2022-09-15T19:05:24.655Z,12.42
2022-09-15T19:07:51.030Z,12.39
2022-09-15T19:10:17.380Z,12.34
2022-09-15T19:12:44.641Z,12.32
2022-09-15T19:15:12.410Z,12.32
2022-09-15T19:17:39.810Z,12.31
2022-09-15T19:20:08.592Z,12.32
2022-09-15T19:22:35.699Z,12.31
2022-09-15T19:25:02.389Z,12.30
2022-09-15T19:27:28.753Z,12.30
2022-09-15T19:29:55.091Z,12.24
2022-09-15T19:32:22.110Z,12.29
2022-09-15T19:34:48.889Z,12.22
2022-09-15T19:37:19.174Z,12.18
2022-09-15T19:39:46.911Z,12.23
2022-09-15T19:44:45.912Z,12.19
2022-09-15T19:47:12.301Z,12.19
2022-09-15T19:49:38.675Z,12.16
2022-09-15T19:52:06.318Z,12.08
2022-09-15T19:54:34.246Z,11.97
2022-09-15T19:57:00.623Z,11.92
2022-09-15T19:59:31.019Z,11.99
2022-09-15T20:01:58.461Z,12.04
2022-09-15T20:04:24.917Z,12.08
2022-09-15T20:06:51.495Z,12.07
2022-09-15T20:09:17.806Z,12.05
2022-09-15T20:11:44.380Z,12.03
2022-09-15T20:14:10.754Z,12.01
2022-09-15T20:16:37.199Z,12.02
2022-09-15T20:19:04.845Z,12.00
2022-09-15T20:21:51.239Z,12.00
2022-09-15T20:24:20.219Z,11.98
2022-09-15T20:26:46.666Z,11.95
2022-09-15T20:29:13.412Z,11.93
2022-09-15T20:31:39.884Z,11.91
2022-09-15T20:34:06.318Z,11.87
2022-09-15T20:36:36.341Z,11.84
2022-09-15T20:39:05.085Z,11.84
2022-09-15T20:41:31.928Z,11.87
2022-09-15T20:43:58.588Z,11.85
2022-09-15T20:46:25.172Z,11.87
2022-09-15T20:48:52.167Z,11.86
2022-09-15T20:51:24.102Z,11.87
2022-09-15T20:53:52.374Z,11.88
2022-09-15T20:56:23.070Z,11.87
2022-09-15T20:58:49.431Z,11.88
2022-09-15T21:01:22.037Z,11.87
2022-09-15T21:03:48.866Z,11.79
2022-09-15T21:06:18.606Z,11.71
2022-09-15T21:08:47.225Z,11.65
2022-09-15T21:11:14.686Z,11.60
2022-09-15T21:13:42.327Z,11.43
2022-09-15T21:16:11.175Z,11.30
2022-09-15T21:18:39.536Z,11.21
2022-09-15T21:21:30.154Z,11.15
2022-09-15T21:24:03.752Z,11.07
2022-09-15T21:26:35.515Z,10.97
2022-09-15T21:29:02.667Z,10.89
2022-09-15T21:31:31.926Z,10.84
2022-09-15T21:33:59.096Z,10.83
2022-09-15T21:36:31.162Z,10.88
2022-09-15T21:38:58.997Z,10.86
2022-09-15T21:41:27.447Z,10.88
2022-09-15T21:43:54.917Z,10.95
2022-09-15T21:46:24.258Z,10.96
2022-09-15T21:48:50.965Z,10.86
2022-09-15T21:51:23.993Z,10.80
2022-09-15T21:53:55.597Z,10.72
2022-09-15T21:56:22.931Z,10.63
2022-09-15T21:58:49.801Z,10.57
2022-09-15T22:01:20.691Z,10.57
2022-09-15T22:03:55.749Z,10.59
2022-09-15T22:06:29.988Z,10.66
2022-09-15T22:08:56.517Z,10.71
2022-09-15T22:11:23.362Z,10.84
2022-09-15T22:13:49.821Z,10.89
2022-09-15T22:16:21.476Z,10.94
2022-09-15T22:18:48.369Z,10.97
2022-09-15T22:21:18.542Z,10.99
2022-09-15T22:23:46.756Z,10.97
2022-09-15T22:26:19.018Z,10.96
2022-09-15T22:28:45.987Z,10.96
2022-09-15T22:31:14.894Z,10.94
2022-09-15T22:33:42.286Z,10.96
2022-09-15T22:36:17.873Z,10.94
2022-09-15T22:38:44.460Z,10.89
2022-09-15T22:41:13.738Z,10.90
2022-09-15T22:43:42.002Z,10.87
2022-09-15T22:46:09.195Z,10.92
2022-09-15T22:48:39.650Z,10.88
2022-09-15T22:51:09.197Z,10.81
2022-09-15T22:53:35.539Z,10.75
2022-09-15T22:56:27.897Z,10.74
2022-09-15T22:58:55.569Z,10.71
2022-09-15T23:01:24.450Z,10.70
2022-09-15T23:03:53.028Z,10.59
2022-09-15T23:06:20.529Z,10.46
2022-09-15T23:08:51.441Z,10.37
2022-09-15T23:11:17.795Z,10.29
2022-09-15T23:13:44.343Z,10.26
2022-09-15T23:16:10.855Z,10.29
2022-09-15T23:18:37.353Z,10.35
2022-09-15T23:21:08.884Z,10.44
2022-09-15T23:23:36.828Z,10.56
2022-09-15T23:26:04.676Z,10.70
2022-09-15T23:28:31.897Z,10.80
2022-09-15T23:30:59.365Z,10.85
2022-09-15T23:33:27.395Z,10.88
2022-09-15T23:35:54.016Z,10.88
2022-09-15T23:38:21.719Z,10.83
2022-09-15T23:40:50.200Z,10.78
2022-09-15T23:43:17.293Z,10.71
2022-09-15T23:45:44.469Z,10.66
2022-09-15T23:48:11.626Z,10.65
2022-09-15T23:50:39.274Z,10.67
2022-09-15T23:53:06.402Z,10.68
2022-09-15T23:55:32.959Z,10.77
2022-09-15T23:57:59.268Z,10.79
